Aérodrome :
LOGIN :

S'inscrire | Disclaimer

   EN    FR    IT 

 










Légende :    VFR   VFR Marginal   IFR   IFR Intensif   IFR Très Intensif
Visi : 
Plafond : 
>= 8 km
>= 3000ft
5 à 8 km
1000 à 3000 ft
1500m à 5 km
500 à 1000 ft
800 à 1500m
200 à 500 ft
< 800m
< 200 ft
Symboles :   Orages  Brouillard  Fortes neiges  Fortes précipitations  Vent > 20 kt
SIGMETs :   Divers  Orages  Givrage  Turbulence  Onde Orograph.  Cendres Volcan.






- Altitude de l'aérodrome : 1234 ft
- Code IATA : LUX


ELLX - Luxembourg Findel

DERNIER METAR :
  • 300350Z 04012KT CAVOK M02/M09 Q1028 NOSIG

METARs EXPIRÉS :
  • 300320Z 04013KT CAVOK M02/M08 Q1028 NOSIG
  • 300250Z 03016KT CAVOK M01/M08 Q1027 NOSIG
  • 300220Z AUTO 03016KT 9999 NCD M01/M07 Q1027 NOSIG
  • 300150Z AUTO 03015KT 9999 NCD M01/M06 Q1027 NOSIG
  • 300120Z AUTO 03016KT 9999 NCD M00/M07 Q1028 NOSIG

TAF TAF ELLX
Valide du 30 à 00h jusqu'au 31 à 06h UTC


292300Z 3000/3106 04015G25KT 9999 FEW020 BKN030
BECMG 3003/3006 04012KT
ATIS : +352 4798 27300
Météo : +352 4798 27010 / 27050



MET'MAP, la Météo Aéronautique d'un coup d'oeil ! - Copyright ORBIFLY Décembre 2007 - Disclaimer

ORBIFLY MET'MAP TEAM :

Programmation & Développement : Alexandra Zaïnal
Sur une idée originale de : Baudouin d'Aumeries
Assistance à la programmation : Marc-Olivier Méhu
Soutien technique & logistique : Manuel Goepfert

Contact : metmap@orbifly.com




SOURCES & CREDITS :

   NOAA